createdAt,value
2022-10-19T04:02:06.329Z,11.23
2022-10-19T04:05:08.890Z,11.15
2022-10-19T04:08:10.978Z,11.22
2022-10-19T04:11:14.769Z,11.22
2022-10-19T04:14:26.941Z,11.31
2022-10-19T04:17:35.615Z,11.40
2022-10-19T04:20:41.993Z,11.51
2022-10-19T04:23:44.318Z,11.46
2022-10-19T04:26:48.762Z,11.65
2022-10-19T04:29:51.057Z,11.65
2022-10-19T04:32:53.090Z,11.79
2022-10-19T04:36:03.053Z,11.84
2022-10-19T04:39:06.409Z,11.83
2022-10-19T04:42:08.721Z,11.76
2022-10-19T04:45:10.812Z,11.82
2022-10-19T04:48:15.092Z,11.76
2022-10-19T04:51:18.166Z,11.78
2022-10-19T04:54:20.517Z,11.84
2022-10-19T04:57:22.542Z,11.86
2022-10-19T05:00:24.841Z,11.94
2022-10-19T05:03:27.136Z,11.89
2022-10-19T05:06:31.255Z,11.80
2022-10-19T05:09:33.301Z,11.79
2022-10-19T05:12:36.220Z,11.80
2022-10-19T05:15:38.257Z,11.73
2022-10-19T05:18:41.765Z,11.73
2022-10-19T05:21:43.778Z,11.66
2022-10-19T05:24:46.069Z,11.65
2022-10-19T05:27:52.481Z,11.58
2022-10-19T05:30:54.902Z,11.61
2022-10-19T05:33:58.089Z,11.45
2022-10-19T05:37:00.993Z,11.48
2022-10-19T05:40:03.110Z,11.48
2022-10-19T05:43:05.411Z,11.44
2022-10-19T05:46:10.368Z,11.43
2022-10-19T05:49:14.469Z,11.50
2022-10-19T05:52:17.689Z,11.62
2022-10-19T05:55:20.017Z,11.86
2022-10-19T05:58:22.143Z,11.98
2022-10-19T06:01:25.752Z,12.27
2022-10-19T06:04:28.059Z,12.58
2022-10-19T06:07:30.110Z,12.95
2022-10-19T06:10:32.484Z,13.42
2022-10-19T06:13:34.946Z,13.65
2022-10-19T06:16:37.914Z,13.90
2022-10-19T06:19:39.934Z,13.95
2022-10-19T06:22:42.722Z,13.92
2022-10-19T06:25:44.773Z,14.00
2022-10-19T06:28:48.690Z,14.12
2022-10-19T06:31:52.008Z,14.22
2022-10-19T06:34:56.631Z,14.27
2022-10-19T06:37:58.822Z,14.31
2022-10-19T06:41:01.213Z,14.39
2022-10-19T06:44:03.278Z,14.43
2022-10-19T06:47:05.566Z,14.50
2022-10-19T06:50:08.449Z,14.48
2022-10-19T06:53:11.234Z,14.55
2022-10-19T06:56:13.612Z,14.51
2022-10-19T06:59:17.545Z,14.48
2022-10-19T07:02:20.222Z,14.45
2022-10-19T07:05:22.764Z,14.65
2022-10-19T07:08:26.274Z,14.81
2022-10-19T07:11:28.793Z,14.83
2022-10-19T07:14:31.485Z,14.86
2022-10-19T07:17:34.992Z,14.92
2022-10-19T07:20:37.244Z,15.04
2022-10-19T07:23:41.508Z,15.18
2022-10-19T07:26:43.876Z,15.40
2022-10-19T07:29:46.251Z,15.48
2022-10-19T07:32:48.344Z,15.69
2022-10-19T07:35:50.613Z,15.76
2022-10-19T07:38:52.900Z,15.88
2022-10-19T07:41:55.218Z,15.93
2022-10-19T07:44:57.419Z,16.10
2022-10-19T07:48:00.134Z,16.20
2022-10-19T07:51:04.986Z,16.19
2022-10-19T07:54:07.861Z,16.29
2022-10-19T07:57:12.144Z,16.31
2022-10-19T08:00:24.526Z,16.32
2022-10-19T08:06:49.814Z,16.36
2022-10-19T08:09:53.892Z,16.34
2022-10-19T08:12:56.392Z,16.50
2022-10-19T08:15:58.686Z,16.60
2022-10-19T08:19:03.931Z,16.66
2022-10-19T08:22:06.236Z,16.71
2022-10-19T08:25:08.437Z,16.60
2022-10-19T08:28:10.722Z,16.80
2022-10-19T08:31:17.113Z,16.99
2022-10-19T08:34:19.418Z,17.10
2022-10-19T08:37:40.207Z,17.08
2022-10-19T08:40:45.213Z,17.00
2022-10-19T08:44:05.047Z,17.05
2022-10-19T08:47:39.447Z,17.23
2022-10-19T08:50:44.647Z,17.36
2022-10-19T08:53:57.364Z,17.35
2022-10-19T08:57:17.137Z,17.43
2022-10-19T09:00:28.274Z,17.33
2022-10-19T09:03:57.727Z,17.40
2022-10-19T09:07:10.705Z,17.42
2022-10-19T09:10:21.068Z,17.31
2022-10-19T09:14:03.806Z,17.43
2022-10-19T09:17:12.255Z,17.45
2022-10-19T09:20:21.272Z,17.51
2022-10-19T09:23:34.914Z,17.56
2022-10-19T09:26:49.518Z,17.54
2022-10-19T09:29:57.903Z,17.88
2022-10-19T09:33:02.483Z,17.80
2022-10-19T09:36:06.816Z,17.93
2022-10-19T09:39:15.289Z,18.09
2022-10-19T09:42:32.984Z,18.26
2022-10-19T09:45:53.401Z,18.34
2022-10-19T09:48:55.424Z,18.52
2022-10-19T09:51:57.714Z,18.70
2022-10-19T09:55:04.250Z,18.88
2022-10-19T09:58:18.329Z,18.78
2022-10-19T10:01:43.059Z,18.44
2022-10-19T10:05:03.048Z,18.50
2022-10-19T10:08:14.102Z,18.73
2022-10-19T10:11:23.137Z,18.98
2022-10-19T10:14:34.906Z,19.34
2022-10-19T10:17:38.380Z,19.50
2022-10-19T10:28:21.791Z,19.00
2022-10-19T10:31:27.656Z,18.68
2022-10-19T10:35:04.343Z,18.65
2022-10-19T10:38:13.298Z,18.40
2022-10-19T10:41:23.203Z,18.18
2022-10-19T10:44:30.742Z,18.09
2022-10-19T10:47:33.380Z,18.07
2022-10-19T10:50:36.798Z,18.13
2022-10-19T10:53:43.250Z,18.26
2022-10-19T10:57:04.322Z,18.32
2022-10-19T11:00:14.209Z,18.38
2022-10-19T11:03:24.542Z,18.42
2022-10-19T11:06:26.984Z,18.45
2022-10-19T11:09:41.628Z,18.56
2022-10-19T11:12:49.633Z,18.44
2022-10-19T11:16:10.795Z,18.36
2022-10-19T11:19:22.320Z,18.53
2022-10-19T11:22:37.690Z,18.74
2022-10-19T11:26:03.872Z,18.91
2022-10-19T11:29:25.046Z,18.97
2022-10-19T11:33:02.941Z,18.81
2022-10-19T11:36:21.997Z,18.71
2022-10-19T11:39:39.169Z,18.55
2022-10-19T11:42:53.348Z,18.60
2022-10-19T11:46:34.870Z,18.47
2022-10-19T11:53:16.272Z,18.36
2022-10-19T11:56:39.241Z,18.41
2022-10-19T11:59:53.423Z,18.65
2022-10-19T12:03:13.964Z,18.73
2022-10-19T12:06:21.926Z,18.93
2022-10-19T12:09:29.773Z,18.90
2022-10-19T12:12:39.081Z,18.64
2022-10-19T12:15:46.725Z,18.53
2022-10-19T12:18:58.407Z,18.45
2022-10-19T12:22:04.011Z,18.39
2022-10-19T12:25:06.917Z,18.29
2022-10-19T12:28:16.316Z,18.30
2022-10-19T12:31:18.858Z,18.28
2022-10-19T12:34:33.959Z,18.24
2022-10-19T12:37:44.748Z,18.26
2022-10-19T12:40:55.886Z,18.28
2022-10-19T12:44:16.528Z,18.33
2022-10-19T12:47:21.719Z,18.33
2022-10-19T12:51:04.187Z,18.28
2022-10-19T12:54:09.445Z,18.14
2022-10-19T12:57:28.770Z,18.16
2022-10-19T13:00:36.836Z,18.19
2022-10-19T13:03:42.436Z,18.15
2022-10-19T13:06:59.470Z,18.20
2022-10-19T13:10:07.100Z,18.23
2022-10-19T13:13:28.944Z,18.24
2022-10-19T13:16:31.105Z,18.22
2022-10-19T13:19:33.202Z,18.13
2022-10-19T13:22:35.751Z,18.15
2022-10-19T13:25:39.173Z,18.13
2022-10-19T13:28:57.435Z,18.11
2022-10-19T13:32:32.887Z,18.15
2022-10-19T13:35:35.882Z,18.08
2022-10-19T13:38:40.870Z,18.12
2022-10-19T13:41:49.017Z,17.99
2022-10-19T13:44:52.946Z,18.07
2022-10-19T13:48:05.669Z,17.98
2022-10-19T13:51:23.934Z,17.99
2022-10-19T13:54:47.750Z,17.99
2022-10-19T13:58:26.911Z,18.02
2022-10-19T14:01:47.391Z,17.96
2022-10-19T14:05:27.598Z,17.90
2022-10-19T14:08:59.914Z,17.84
2022-10-19T14:12:17.412Z,17.78
2022-10-19T14:15:25.732Z,17.71
2022-10-19T14:18:33.623Z,17.66
2022-10-19T14:21:36.949Z,17.60
2022-10-19T14:24:39.267Z,17.55
2022-10-19T14:27:41.875Z,17.48
2022-10-19T14:30:44.519Z,17.44
2022-10-19T14:33:50.306Z,17.31
2022-10-19T14:36:52.698Z,17.26
2022-10-19T14:40:26.625Z,17.18
2022-10-19T14:43:32.596Z,17.11
2022-10-19T14:46:34.698Z,17.05
2022-10-19T14:49:37.033Z,16.95
2022-10-19T14:52:40.471Z,16.93
2022-10-19T14:55:43.573Z,16.94
2022-10-19T14:58:49.955Z,16.89
2022-10-19T15:01:56.600Z,16.83
2022-10-19T15:05:01.406Z,16.69
2022-10-19T15:08:42.473Z,16.62
2022-10-19T15:11:52.342Z,16.48
2022-10-19T15:14:54.986Z,16.45
2022-10-19T15:18:04.723Z,16.39
2022-10-19T15:21:18.197Z,16.32
2022-10-19T15:24:27.401Z,16.29
2022-10-19T15:27:32.874Z,16.23
2022-10-19T15:30:34.946Z,16.12
2022-10-19T15:33:40.214Z,16.06
2022-10-19T15:36:54.554Z,16.05
2022-10-19T15:39:56.850Z,15.87
